Time;durP1;ratioP1;P1;durP2;ratioP2;P2;SDS_P1;SDS_P2;PMS_P1;PMS_P2;Temp;Humidity;BMP_temperature;BMP_pressure;BME280_temperature;BME280_humidity;BME280_pressure;Samples;Min_cycle;Max_cycle;Signal;HPM_P1;HPM_P2
2024/01/10 00:02:05;;;;;;;8.63;2.20;;;2.60;48.10;;;;;;5011354;28;20030;-73
2024/01/10 00:04:31;;;;;;;5.82;2.60;;;2.60;48.20;;;;;;5017451;28;20116;-73
2024/01/10 00:06:57;;;;;;;4.78;1.65;;;2.60;48.20;;;;;;5017299;28;20429;-74
2024/01/10 00:09:23;;;;;;;9.50;2.00;;;2.60;48.30;;;;;;5014820;28;20033;-73
2024/01/10 00:11:49;;;;;;;6.47;2.13;;;2.60;48.30;;;;;;5028500;28;20040;-74
2024/01/10 00:14:16;;;;;;;8.77;2.50;;;2.60;48.40;;;;;;5006808;28;20496;-73
2024/01/10 00:16:42;;;;;;;7.63;2.55;;;2.60;48.40;;;;;;5002961;28;20072;-74
2024/01/10 00:19:08;;;;;;;6.78;1.95;;;2.50;48.20;;;;;;5010659;28;20505;-74
2024/01/10 00:21:36;;;;;;;4.22;1.77;;;2.50;48.30;;;;;;5013348;28;20041;-73
2024/01/10 00:24:01;;;;;;;6.05;1.50;;;2.60;48.50;;;;;;5014391;28;20057;-73
2024/01/10 00:26:27;;;;;;;5.93;1.95;;;2.60;48.60;;;;;;5020175;28;20042;-74
2024/01/10 00:28:53;;;;;;;5.97;2.28;;;2.60;48.70;;;;;;5019834;28;20049;-73
2024/01/10 00:31:19;;;;;;;5.90;2.10;;;2.60;48.70;;;;;;5011797;28;20120;-73
2024/01/10 00:33:45;;;;;;;7.80;1.90;;;2.60;48.70;;;;;;5019101;28;20037;-74
2024/01/10 00:36:11;;;;;;;8.65;2.65;;;2.60;48.80;;;;;;5003879;28;20040;-74
2024/01/10 00:38:37;;;;;;;6.10;1.90;;;2.60;48.90;;;;;;5021396;28;20022;-74
2024/01/10 00:41:03;;;;;;;7.18;2.13;;;2.60;48.90;;;;;;5017404;28;20068;-74
2024/01/10 00:43:29;;;;;;;4.82;2.47;;;2.60;49.00;;;;;;5017647;28;20064;-73
2024/01/10 00:45:55;;;;;;;5.57;2.25;;;2.60;49.00;;;;;;5019332;28;20037;-73
2024/01/10 00:48:22;;;;;;;6.90;2.10;;;2.60;49.10;;;;;;5023319;28;20049;-74
2024/01/10 00:50:48;;;;;;;7.18;2.53;;;2.60;49.10;;;;;;5020236;28;20032;-74
2024/01/10 00:53:14;;;;;;;6.20;2.15;;;2.60;49.10;;;;;;5003490;28;20041;-74
2024/01/10 00:55:40;;;;;;;7.57;1.60;;;2.60;49.20;;;;;;5012658;28;20704;-74
2024/01/10 00:58:06;;;;;;;5.93;1.83;;;2.60;49.20;;;;;;5019703;28;20029;-74
2024/01/10 01:00:33;;;;;;;7.28;2.35;;;2.60;49.20;;;;;;5015255;28;20386;-74
2024/01/10 01:02:58;;;;;;;8.75;1.67;;;2.60;49.30;;;;;;5016293;28;20033;-74
2024/01/10 01:05:24;;;;;;;6.40;2.17;;;2.60;49.40;;;;;;5019109;28;20429;-74
2024/01/10 01:07:50;;;;;;;5.00;1.45;;;2.60;49.30;;;;;;5014388;28;20535;-76
2024/01/10 01:10:16;;;;;;;8.48;2.00;;;2.60;49.40;;;;;;5014016;28;20481;-72
2024/01/10 01:12:42;;;;;;;3.42;1.92;;;2.60;49.40;;;;;;5010647;28;20029;-75
2024/01/10 01:15:08;;;;;;;8.80;2.72;;;2.60;49.50;;;;;;5005552;28;20080;-74
2024/01/10 01:17:34;;;;;;;11.27;2.30;;;2.60;49.50;;;;;;5003268;28;20052;-73
2024/01/10 01:20:00;;;;;;;6.38;2.08;;;2.60;49.60;;;;;;5015118;28;20037;-73
2024/01/10 01:22:26;;;;;;;4.20;2.28;;;2.60;49.60;;;;;;5003577;28;20025;-74
2024/01/10 01:24:52;;;;;;;8.38;2.15;;;2.50;49.50;;;;;;5016566;28;20543;-74
2024/01/10 01:27:18;;;;;;;4.78;2.15;;;2.50;49.50;;;;;;5007561;28;20121;-75
2024/01/10 01:29:44;;;;;;;7.88;1.92;;;2.50;49.60;;;;;;5013448;28;20034;-74
2024/01/10 01:32:10;;;;;;;10.05;2.17;;;2.50;49.70;;;;;;5009775;28;20029;-74
2024/01/10 01:34:36;;;;;;;3.30;2.00;;;2.50;49.70;;;;;;5021964;28;20088;-74
2024/01/10 01:37:03;;;;;;;3.45;1.52;;;2.50;49.70;;;;;;5019646;28;20030;-74
2024/01/10 01:39:29;;;;;;;6.15;1.75;;;2.50;49.80;;;;;;5036451;28;20037;-73
2024/01/10 01:41:55;;;;;;;4.13;2.15;;;2.50;49.90;;;;;;5010914;28;20420;-74
2024/01/10 01:44:21;;;;;;;4.13;1.70;;;2.50;49.90;;;;;;5020667;28;20099;-74
2024/01/10 01:46:48;;;;;;;4.60;2.13;;;2.50;50.50;;;;;;5020278;28;20037;-75
2024/01/10 01:49:14;;;;;;;9.90;1.80;;;2.50;50.00;;;;;;5022134;28;20130;-74
2024/01/10 01:51:40;;;;;;;3.67;1.58;;;2.50;50.00;;;;;;5010322;28;20122;-76
2024/01/10 01:54:11;;;;;;;7.90;2.05;;;2.50;50.00;;;;;;5016112;28;20041;-75
2024/01/10 01:56:38;;;;;;;7.25;1.90;;;2.50;50.10;;;;;;5015669;28;20107;-76
2024/01/10 01:59:05;;;;;;;5.20;1.80;;;2.50;50.10;;;;;;5022244;28;20500;-76
2024/01/10 02:01:31;;;;;;;5.43;2.10;;;2.50;50.20;;;;;;5007637;28;20437;-75
2024/01/10 02:03:57;;;;;;;4.43;2.72;;;2.50;50.20;;;;;;5021361;28;20037;-76
2024/01/10 02:06:23;;;;;;;8.80;2.15;;;2.50;50.30;;;;;;5021273;28;20127;-74
2024/01/10 02:08:49;;;;;;;9.55;2.97;;;2.50;50.30;;;;;;5020652;28;20051;-76
2024/01/10 02:11:15;;;;;;;5.03;2.15;;;2.50;50.30;;;;;;5011275;28;20564;-76
2024/01/10 02:13:42;;;;;;;6.63;1.80;;;2.50;50.40;;;;;;5010412;28;20037;-75
2024/01/10 02:16:09;;;;;;;4.32;1.98;;;2.50;50.40;;;;;;5020433;28;20030;-74
2024/01/10 02:18:35;;;;;;;5.40;2.22;;;2.40;50.30;;;;;;5015897;28;20031;-74
2024/01/10 02:21:01;;;;;;;7.07;2.03;;;2.50;50.50;;;;;;5014566;28;20021;-76
2024/01/10 02:23:27;;;;;;;5.57;2.17;;;2.40;50.40;;;;;;5019528;28;20030;-74
2024/01/10 02:25:54;;;;;;;8.65;2.40;;;2.40;50.40;;;;;;5016492;28;20025;-74
2024/01/10 02:28:20;;;;;;;2.95;1.83;;;2.40;50.50;;;;;;5017805;28;20037;-73
2024/01/10 02:30:47;;;;;;;10.20;2.28;;;2.40;50.50;;;;;;5018136;28;20108;-74
2024/01/10 02:33:13;;;;;;;5.35;1.95;;;2.40;50.60;;;;;;5010332;28;20488;-74
2024/01/10 02:35:39;;;;;;;6.65;1.98;;;2.40;50.60;;;;;;5016983;28;20584;-74
2024/01/10 02:38:05;;;;;;;7.45;2.03;;;2.40;50.70;;;;;;5020574;28;20132;-73
2024/01/10 02:40:31;;;;;;;3.40;1.50;;;2.40;50.70;;;;;;5016998;28;20498;-74
2024/01/10 02:42:57;;;;;;;4.78;2.10;;;2.40;50.70;;;;;;5006223;28;20083;-74
2024/01/10 02:45:23;;;;;;;9.02;1.98;;;2.40;50.80;;;;;;5011955;28;20084;-75
2024/01/10 02:47:49;;;;;;;5.43;1.73;;;2.40;50.80;;;;;;5015580;28;20126;-76
2024/01/10 02:50:16;;;;;;;5.28;1.90;;;2.40;50.80;;;;;;5017565;28;20047;-76
2024/01/10 02:52:42;;;;;;;6.93;2.25;;;2.40;50.90;;;;;;5009056;28;20045;-75
2024/01/10 02:55:08;;;;;;;8.02;2.45;;;2.40;50.90;;;;;;5020967;28;20025;-76
2024/01/10 02:57:34;;;;;;;7.47;1.98;;;2.40;51.00;;;;;;5011127;28;20029;-77
2024/01/10 03:00:00;;;;;;;3.40;1.80;;;2.40;51.10;;;;;;5016956;28;20112;-77
2024/01/10 03:02:26;;;;;;;5.90;1.92;;;2.40;51.10;;;;;;5015570;28;20168;-75
2024/01/10 03:04:52;;;;;;;4.38;1.90;;;2.40;51.10;;;;;;5010813;28;20546;-75
2024/01/10 03:07:18;;;;;;;7.40;1.75;;;2.40;51.20;;;;;;5013076;28;20558;-76
2024/01/10 03:09:44;;;;;;;4.32;2.03;;;2.40;51.20;;;;;;5015836;28;20065;-76
2024/01/10 03:12:12;;;;;;;9.05;1.95;;;2.30;51.10;;;;;;5004514;28;20509;-77
2024/01/10 03:14:37;;;;;;;6.93;1.63;;;2.30;51.10;;;;;;5014974;28;20033;-75
2024/01/10 03:17:03;;;;;;;6.13;2.35;;;2.30;51.10;;;;;;5010086;28;20079;-74
2024/01/10 03:19:29;;;;;;;7.38;2.00;;;2.30;51.20;;;;;;5008972;28;20088;-76
2024/01/10 03:21:55;;;;;;;6.78;1.95;;;2.30;51.20;;;;;;5017350;28;20118;-76
2024/01/10 03:24:24;;;;;;;7.82;2.10;;;2.30;51.30;;;;;;5011088;28;20421;-74
2024/01/10 03:26:49;;;;;;;5.68;2.25;;;2.30;51.30;;;;;;5015150;28;20041;-75
2024/01/10 03:29:15;;;;;;;5.95;2.65;;;2.30;51.40;;;;;;5011760;28;20143;-76
2024/01/10 03:31:42;;;;;;;4.47;2.10;;;2.30;51.40;;;;;;5014808;28;20088;-76
2024/01/10 03:34:08;;;;;;;7.57;2.30;;;2.30;51.40;;;;;;5015501;28;20058;-76
2024/01/10 03:36:33;;;;;;;10.07;2.40;;;2.30;51.40;;;;;;5004082;28;20022;-76
2024/01/10 03:39:00;;;;;;;5.78;2.15;;;2.30;51.50;;;;;;5009861;28;20162;-78
2024/01/10 03:41:26;;;;;;;5.07;2.13;;;2.30;51.60;;;;;;5011429;28;20034;-76
2024/01/10 03:43:52;;;;;;;8.70;2.20;;;2.30;51.60;;;;;;5022029;28;20041;-76
2024/01/10 03:46:17;;;;;;;9.20;2.38;;;2.30;51.60;;;;;;5019308;28;20053;-75
2024/01/10 03:48:50;;;;;;;7.20;2.17;;;2.30;51.60;;;;;;5018573;28;20082;-75
2024/01/10 03:51:17;;;;;;;6.97;1.85;;;2.30;51.70;;;;;;5012944;28;20053;-76
2024/01/10 03:53:44;;;;;;;4.60;2.10;;;2.30;51.70;;;;;;5018499;28;20056;-75
2024/01/10 03:56:11;;;;;;;6.57;1.90;;;2.30;51.80;;;;;;5022152;28;20390;-74
2024/01/10 03:58:37;;;;;;;3.92;2.00;;;2.30;51.90;;;;;;5016676;28;20033;-74
2024/01/10 04:01:07;;;;;;;5.65;2.47;;;2.20;51.70;;;;;;5012733;28;20022;-75
2024/01/10 04:03:34;;;;;;;4.93;2.30;;;2.30;52.00;;;;;;5012513;28;20029;-76
2024/01/10 04:06:01;;;;;;;8.18;1.98;;;2.30;52.00;;;;;;5020365;28;20037;-75
2024/01/10 04:08:27;;;;;;;8.07;2.70;;;2.30;52.00;;;;;;5020197;28;20048;-77
2024/01/10 04:10:54;;;;;;;4.70;2.13;;;2.20;51.90;;;;;;5031125;28;20412;-78
2024/01/10 04:13:20;;;;;;;7.22;1.73;;;2.20;51.90;;;;;;5014689;28;20029;-75
2024/01/10 04:15:46;;;;;;;5.78;2.47;;;2.20;51.90;;;;;;5024233;28;20037;-78
2024/01/10 04:18:12;;;;;;;7.65;2.30;;;2.20;52.00;;;;;;5025367;28;20033;-77
2024/01/10 04:20:38;;;;;;;4.60;1.95;;;2.20;52.00;;;;;;5022532;28;20091;-77
2024/01/10 04:23:04;;;;;;;5.85;1.80;;;2.20;52.00;;;;;;5014644;28;20444;-77
2024/01/10 04:25:32;;;;;;;9.35;2.05;;;2.20;52.10;;;;;;5024913;28;20115;-75
2024/01/10 04:27:58;;;;;;;7.18;2.22;;;2.30;52.30;;;;;;5025392;28;20470;-77
2024/01/10 04:30:24;;;;;;;6.60;2.00;;;2.20;52.20;;;;;;5021684;28;20045;-77
2024/01/10 04:32:49;;;;;;;8.25;2.42;;;2.20;52.20;;;;;;5006632;28;20034;-77
2024/01/10 04:35:15;;;;;;;4.75;1.80;;;2.20;52.20;;;;;;5020956;28;20417;-77
2024/01/10 04:37:41;;;;;;;4.70;2.05;;;2.20;52.20;;;;;;5016747;28;20164;-76
2024/01/10 04:40:11;;;;;;;4.50;1.65;;;2.20;52.20;;;;;;5035544;28;20461;-76
2024/01/10 04:42:36;;;;;;;6.25;1.90;;;2.20;52.30;;;;;;5041741;28;20030;-76
2024/01/10 04:45:02;;;;;;;3.60;2.00;;;2.20;52.30;;;;;;5048299;28;20033;-76
2024/01/10 04:47:29;;;;;;;6.63;2.00;;;2.20;52.30;;;;;;5047023;28;20053;-77
2024/01/10 04:49:55;;;;;;;6.78;2.10;;;2.20;52.40;;;;;;5040730;28;20022;-78
2024/01/10 04:52:21;;;;;;;6.60;2.13;;;2.20;52.50;;;;;;5033201;28;20038;-77
2024/01/10 04:54:48;;;;;;;4.40;1.67;;;2.20;52.50;;;;;;5034400;28;20089;-78
2024/01/10 04:57:14;;;;;;;5.95;1.75;;;2.20;52.50;;;;;;5031116;28;20295;-77
2024/01/10 04:59:40;;;;;;;4.65;1.90;;;2.20;52.50;;;;;;5015066;28;20482;-77
2024/01/10 05:02:05;;;;;;;4.60;2.10;;;2.20;52.60;;;;;;5011326;28;20058;-76
2024/01/10 05:04:31;;;;;;;3.30;1.40;;;2.20;52.60;;;;;;5022430;28;20030;-77
2024/01/10 05:06:57;;;;;;;5.68;2.33;;;2.20;52.70;;;;;;5016801;28;20534;-75
2024/01/10 05:09:23;;;;;;;5.78;2.22;;;2.20;52.70;;;;;;5023714;28;20041;-76
2024/01/10 05:11:51;;;;;;;6.32;2.35;;;2.20;52.70;;;;;;5012587;28;20521;-77
2024/01/10 05:14:21;;;;;;;7.88;2.67;;;2.20;52.70;;;;;;5007920;28;20474;-77
2024/01/10 05:16:48;;;;;;;5.97;2.13;;;2.20;52.70;;;;;;5016654;28;20486;-77
2024/01/10 05:19:14;;;;;;;4.70;2.22;;;2.20;52.70;;;;;;5004107;28;20580;-78
2024/01/10 05:21:40;;;;;;;3.25;1.75;;;2.30;53.00;;;;;;5015944;28;20096;-77
2024/01/10 05:24:06;;;;;;;6.85;1.80;;;2.20;52.80;;;;;;5014264;28;20328;-77
2024/01/10 05:26:32;;;;;;;8.80;2.63;;;2.20;52.80;;;;;;5009858;28;20038;-77
2024/01/10 05:28:58;;;;;;;5.00;2.17;;;2.20;52.90;;;;;;5017881;28;20406;-77
2024/01/10 05:31:24;;;;;;;4.05;1.58;;;2.20;52.90;;;;;;5019235;28;20069;-78
2024/01/10 05:33:50;;;;;;;5.45;1.80;;;2.20;52.90;;;;;;5010870;28;20048;-75
2024/01/10 05:36:16;;;;;;;5.70;2.03;;;2.30;53.10;;;;;;5014139;28;20389;-77
2024/01/10 05:38:41;;;;;;;7.20;1.95;;;2.30;53.10;;;;;;5019853;28;20045;-77
2024/01/10 05:41:08;;;;;;;4.63;2.10;;;2.30;53.10;;;;;;5011625;28;20025;-77
2024/01/10 05:43:34;;;;;;;5.75;1.83;;;2.30;53.10;;;;;;5008213;28;20030;-77
2024/01/10 05:46:00;;;;;;;8.70;1.95;;;2.30;53.20;;;;;;5003928;28;20037;-76
2024/01/10 05:48:26;;;;;;;7.80;1.95;;;2.30;53.20;;;;;;5004294;28;20049;-75
2024/01/10 05:50:52;;;;;;;4.43;2.17;;;2.30;53.20;;;;;;5017069;28;20276;-75
2024/01/10 05:53:18;;;;;;;6.07;1.98;;;2.30;53.20;;;;;;5014751;28;20487;-74
2024/01/10 05:55:44;;;;;;;5.72;2.00;;;2.30;53.30;;;;;;5010995;28;20030;-75
2024/01/10 05:58:11;;;;;;;5.18;2.45;;;2.30;53.30;;;;;;5013943;28;20030;-75
2024/01/10 06:00:37;;;;;;;6.40;2.17;;;2.20;53.20;;;;;;5009279;28;20053;-77
2024/01/10 06:03:04;;;;;;;3.97;2.08;;;2.20;53.20;;;;;;5013598;28;20040;-78
2024/01/10 06:05:31;;;;;;;4.13;1.73;;;2.30;53.40;;;;;;5021205;28;20060;-77
2024/01/10 06:07:57;;;;;;;4.95;1.98;;;2.30;53.40;;;;;;5012907;28;20052;-77
2024/01/10 06:10:24;;;;;;;6.47;2.20;;;2.30;53.40;;;;;;5019332;28;20653;-77
2024/01/10 06:12:50;;;;;;;4.15;1.50;;;2.30;53.50;;;;;;5009868;28;20580;-75
2024/01/10 06:15:16;;;;;;;8.13;1.67;;;2.30;53.50;;;;;;5007409;28;20101;-77
2024/01/10 06:17:43;;;;;;;4.20;2.03;;;2.30;53.50;;;;;;5007054;28;20029;-75
2024/01/10 06:20:09;;;;;;;5.72;1.77;;;2.30;53.50;;;;;;5007756;28;20082;-75
2024/01/10 06:22:35;;;;;;;4.93;1.55;;;2.30;53.50;;;;;;5006133;28;20033;-76
2024/01/10 06:25:02;;;;;;;6.40;1.80;;;2.30;53.50;;;;;;5017068;28;20064;-75
2024/01/10 06:27:28;;;;;;;3.33;1.42;;;2.20;53.40;;;;;;5011961;28;20041;-76
2024/01/10 06:29:54;;;;;;;7.40;2.05;;;2.30;53.60;;;;;;5014742;28;20037;-76
2024/01/10 06:32:20;;;;;;;7.68;1.95;;;2.20;53.40;;;;;;5009416;28;20509;-75
2024/01/10 06:34:46;;;;;;;4.25;2.28;;;2.20;53.50;;;;;;5008996;28;20076;-77
2024/01/10 06:37:12;;;;;;;6.93;2.25;;;2.20;53.50;;;;;;5005983;28;20026;-77
2024/01/10 06:39:38;;;;;;;4.72;1.58;;;2.30;53.70;;;;;;5012155;28;20025;-76
2024/01/10 06:42:06;;;;;;;7.47;2.28;;;2.30;53.80;;;;;;5010690;28;20060;-76
2024/01/10 06:44:31;;;;;;;6.70;2.30;;;2.20;53.60;;;;;;5020865;28;20445;-77
2024/01/10 06:46:57;;;;;;;6.35;1.77;;;2.30;53.80;;;;;;5017071;28;20053;-77
2024/01/10 06:49:24;;;;;;;6.32;1.75;;;2.20;53.70;;;;;;5005984;28;20038;-77
2024/01/10 06:51:49;;;;;;;7.25;2.00;;;2.30;53.90;;;;;;5007009;28;20032;-77
2024/01/10 06:54:15;;;;;;;6.78;2.10;;;2.20;53.70;;;;;;5013848;28;20356;-77
2024/01/10 06:56:41;;;;;;;6.63;2.03;;;2.20;53.70;;;;;;5012920;28;20505;-75
2024/01/10 06:59:07;;;;;;;4.35;2.10;;;2.20;53.70;;;;;;5009412;28;20064;-76
2024/01/10 07:01:33;;;;;;;7.10;2.08;;;2.30;54.00;;;;;;5006157;28;20408;-76
2024/01/10 07:03:59;;;;;;;5.68;2.20;;;2.30;54.00;;;;;;5010743;28;20560;-74
2024/01/10 07:06:26;;;;;;;5.97;2.15;;;2.30;54.00;;;;;;5010751;28;20021;-77
2024/01/10 07:08:52;;;;;;;4.50;2.97;;;2.20;53.80;;;;;;5018126;28;20069;-76
2024/01/10 07:11:19;;;;;;;4.35;1.98;;;2.20;53.90;;;;;;5008419;28;20378;-76
2024/01/10 07:13:45;;;;;;;7.90;2.58;;;2.30;54.10;;;;;;5011539;28;20041;-76
2024/01/10 07:16:14;;;;;;;9.05;2.35;;;2.20;53.90;;;;;;5012992;28;20145;-77
2024/01/10 07:18:41;;;;;;;5.72;2.17;;;2.20;53.90;;;;;;5014534;28;20411;-76
2024/01/10 07:21:09;;;;;;;5.75;2.92;;;2.20;54.00;;;;;;5015525;28;20045;-76
2024/01/10 07:23:35;;;;;;;5.18;2.60;;;2.20;54.00;;;;;;5008687;28;20091;-77
2024/01/10 07:26:01;;;;;;;5.95;2.40;;;2.20;54.00;;;;;;5006312;28;20105;-77
2024/01/10 07:28:27;;;;;;;6.88;2.45;;;2.30;54.20;;;;;;5012556;28;20038;-76
2024/01/10 07:30:53;;;;;;;5.90;2.28;;;2.30;54.20;;;;;;5011769;28;20055;-76
2024/01/10 07:33:20;;;;;;;6.50;2.50;;;2.30;54.30;;;;;;5016097;28;20036;-75
2024/01/10 07:35:46;;;;;;;7.07;2.47;;;2.20;54.10;;;;;;5003322;28;20026;-76
2024/01/10 07:38:12;;;;;;;5.15;1.77;;;2.20;54.10;;;;;;5008169;28;20041;-77
2024/01/10 07:40:38;;;;;;;4.95;2.10;;;2.30;54.30;;;;;;5015047;28;20479;-77
2024/01/10 07:43:04;;;;;;;5.07;2.08;;;2.20;54.20;;;;;;5015331;28;20124;-77
2024/01/10 07:45:31;;;;;;;6.38;2.05;;;2.20;54.20;;;;;;5018727;28;20444;-75
2024/01/10 07:47:57;;;;;;;7.88;2.25;;;2.20;54.20;;;;;;5017802;28;20125;-76
2024/01/10 07:50:27;;;;;;;3.00;1.85;;;2.20;54.20;;;;;;5017430;28;20037;-77
2024/01/10 07:52:53;;;;;;;4.25;2.00;;;2.20;54.30;;;;;;5017598;28;20025;-77
2024/01/10 07:55:19;;;;;;;4.80;2.10;;;2.20;54.30;;;;;;5022692;28;20444;-76
2024/01/10 07:57:45;;;;;;;6.32;2.45;;;2.20;54.30;;;;;;5014800;28;20028;-77
2024/01/10 08:00:13;;;;;;;5.28;2.20;;;2.30;54.50;;;;;;5013963;28;20586;-77
2024/01/10 08:02:39;;;;;;;3.92;1.92;;;2.20;54.40;;;;;;5009185;28;20103;-75
2024/01/10 08:05:09;;;;;;;7.30;2.72;;;2.20;54.40;;;;;;5034595;28;20310;-76
2024/01/10 08:07:39;;;;;;;6.45;2.10;;;2.30;54.60;;;;;;5036674;28;20033;-76
2024/01/10 08:10:07;;;;;;;4.72;2.03;;;2.30;54.60;;;;;;5032360;28;20034;-75
2024/01/10 08:12:33;;;;;;;7.43;2.45;;;2.30;54.60;;;;;;5004854;28;20084;-75
2024/01/10 08:14:59;;;;;;;6.10;2.47;;;2.30;54.60;;;;;;5008226;28;20505;-76
2024/01/10 08:17:25;;;;;;;4.78;1.80;;;2.30;54.70;;;;;;5005194;28;20026;-75
2024/01/10 08:19:54;;;;;;;3.47;2.05;;;2.30;54.70;;;;;;5009232;28;20500;-75
2024/01/10 08:22:20;;;;;;;5.63;2.55;;;2.30;54.70;;;;;;5011079;28;20596;-75
2024/01/10 08:24:46;;;;;;;6.53;2.30;;;2.30;54.70;;;;;;5013845;28;20038;-76
2024/01/10 08:27:13;;;;;;;6.97;2.35;;;2.30;54.70;;;;;;5017446;28;20091;-75
2024/01/10 08:29:38;;;;;;;6.00;2.00;;;2.30;54.80;;;;;;5014050;28;20102;-75
2024/01/10 08:32:05;;;;;;;6.50;2.05;;;2.30;54.80;;;;;;5017795;28;20456;-74
2024/01/10 08:34:31;;;;;;;7.60;2.75;;;2.30;54.80;;;;;;5019160;28;20037;-76
2024/01/10 08:36:58;;;;;;;7.95;2.42;;;2.30;54.80;;;;;;5009760;28;20037;-75
2024/01/10 08:39:30;;;;;;;5.82;1.90;;;2.30;54.80;;;;;;5021532;28;20180;-76
2024/01/10 08:41:57;;;;;;;4.78;2.00;;;2.30;54.80;;;;;;5016171;28;20038;-75
2024/01/10 08:44:25;;;;;;;7.68;2.78;;;2.30;54.90;;;;;;5014449;28;20037;-75
2024/01/10 08:46:51;;;;;;;4.47;2.05;;;2.30;55.40;;;;;;5019283;28;20164;-75
2024/01/10 08:49:17;;;;;;;3.58;2.05;;;2.30;54.90;;;;;;5017397;28;20570;-74
2024/01/10 08:51:44;;;;;;;4.78;2.05;;;2.40;55.10;;;;;;5017216;28;20477;-74
2024/01/10 08:54:12;;;;;;;5.88;2.13;;;2.30;54.90;;;;;;5021064;28;20069;-74
2024/01/10 08:56:38;;;;;;;4.93;2.20;;;2.40;55.10;;;;;;5014389;28;20041;-75
2024/01/10 08:59:05;;;;;;;6.13;2.50;;;2.40;55.10;;;;;;5000744;28;20081;-75
2024/01/10 09:01:31;;;;;;;3.20;2.20;;;2.40;55.10;;;;;;5016633;28;20042;-74
2024/01/10 09:03:57;;;;;;;4.80;2.03;;;2.40;55.10;;;;;;5013411;28;20046;-74
2024/01/10 09:06:23;;;;;;;9.52;2.67;;;2.50;55.30;;;;;;5017488;28;20168;-74
2024/01/10 09:08:49;;;;;;;4.90;1.77;;;2.50;55.30;;;;;;5012366;28;20998;-75
2024/01/10 09:11:15;;;;;;;8.52;2.05;;;2.50;55.30;;;;;;5009316;28;20038;-75
2024/01/10 09:13:41;;;;;;;4.60;2.03;;;2.50;55.30;;;;;;5033962;28;20185;-74
2024/01/10 09:16:07;;;;;;;5.47;2.08;;;2.50;55.30;;;;;;5015959;28;20551;-74
2024/01/10 09:18:33;;;;;;;3.50;1.83;;;2.50;55.30;;;;;;5015715;28;20309;-74
2024/01/10 09:20:59;;;;;;;3.72;2.03;;;2.50;55.30;;;;;;5015577;28;20515;-74
2024/01/10 09:23:27;;;;;;;6.35;2.17;;;2.60;56.00;;;;;;5014641;28;20025;-75
2024/01/10 09:25:54;;;;;;;6.30;2.20;;;2.60;55.50;;;;;;5018042;28;20033;-75
2024/01/10 09:28:20;;;;;;;6.88;2.08;;;2.60;55.50;;;;;;5010347;28;20447;-74
2024/01/10 09:30:46;;;;;;;6.00;2.15;;;2.60;55.50;;;;;;5017223;28;20021;-75
2024/01/10 09:33:12;;;;;;;6.15;2.15;;;2.70;55.70;;;;;;5018272;28;20516;-73
2024/01/10 09:35:38;;;;;;;4.32;2.42;;;2.70;55.70;;;;;;5021322;28;20143;-75
2024/01/10 09:38:04;;;;;;;3.05;1.85;;;2.70;55.70;;;;;;5014074;28;20051;-74
2024/01/10 09:40:31;;;;;;;2.55;1.73;;;2.70;55.70;;;;;;5000994;28;20041;-75
2024/01/10 09:42:57;;;;;;;3.15;1.85;;;2.70;55.70;;;;;;5020959;28;20064;-75
2024/01/10 09:45:25;;;;;;;2.58;1.73;;;2.70;55.70;;;;;;5020419;28;20045;-75
2024/01/10 09:47:55;;;;;;;4.55;2.20;;;2.80;55.90;;;;;;5018831;28;20054;-75
2024/01/10 09:50:21;;;;;;;6.82;1.98;;;2.80;55.80;;;;;;5023788;28;20049;-75
2024/01/10 09:53:00;;;;;;;4.30;2.13;;;2.80;55.80;;;;;;5023981;28;20029;-75
2024/01/10 09:55:36;;;;;;;3.97;2.50;;;2.80;55.80;;;;;;5025244;28;20478;-74
2024/01/10 09:58:05;;;;;;;9.73;2.55;;;2.90;55.90;;;;;;5034884;28;20064;-75
2024/01/10 10:00:35;;;;;;;4.45;1.80;;;2.90;55.90;;;;;;5018018;28;20139;-75
2024/01/10 10:03:04;;;;;;;4.43;2.05;;;2.90;55.90;;;;;;5007303;28;20061;-74
2024/01/10 10:05:30;;;;;;;2.97;1.98;;;3.00;56.10;;;;;;5017642;28;20193;-75
2024/01/10 10:07:58;;;;;;;4.78;2.35;;;3.00;56.10;;;;;;5009975;28;20339;-75
2024/01/10 10:10:24;;;;;;;6.30;2.20;;;3.00;56.00;;;;;;5009930;28;20342;-74
2024/01/10 10:12:52;;;;;;;3.42;1.90;;;3.00;56.00;;;;;;5009544;28;20033;-76
2024/01/10 10:15:21;;;;;;;4.43;1.73;;;3.00;56.00;;;;;;5009146;28;20159;-75
2024/01/10 10:17:49;;;;;;;3.00;2.10;;;3.00;56.00;;;;;;5007440;28;20344;-75
2024/01/10 10:20:24;;;;;;;5.18;2.00;;;3.00;56.10;;;;;;5008340;28;20083;-75
2024/01/10 10:23:04;;;;;;;3.08;1.98;;;3.10;56.30;;;;;;5005820;28;20241;-75
2024/01/10 10:25:34;;;;;;;3.78;1.65;;;3.10;56.30;;;;;;5026222;28;20041;-75
2024/01/10 10:28:03;;;;;;;5.43;1.90;;;3.10;56.20;;;;;;5015437;28;20259;-74
2024/01/10 10:30:32;;;;;;;6.43;2.78;;;3.10;56.20;;;;;;5014135;28;20037;-75
2024/01/10 10:32:58;;;;;;;4.75;1.95;;;3.10;56.20;;;;;;5011805;28;20057;-74
2024/01/10 10:35:24;;;;;;;7.20;2.45;;;3.20;56.90;;;;;;5017662;28;20037;-74
2024/01/10 10:37:52;;;;;;;5.10;2.33;;;3.20;56.40;;;;;;5018146;28;20021;-75
2024/01/10 10:40:19;;;;;;;3.63;1.90;;;3.20;56.40;;;;;;5016006;28;20079;-75
2024/01/10 10:42:49;;;;;;;5.80;2.33;;;3.20;56.40;;;;;;5004415;28;20448;-75
2024/01/10 10:45:25;;;;;;;3.05;2.03;;;3.20;56.30;;;;;;5017215;28;20221;-75
2024/01/10 10:48:00;;;;;;;3.35;1.77;;;3.30;56.50;;;;;;5019212;28;20064;-76
2024/01/10 10:50:36;;;;;;;5.55;2.00;;;3.30;56.50;;;;;;5016176;28;20041;-74
2024/01/10 10:53:03;;;;;;;5.15;1.88;;;3.30;56.50;;;;;;5015822;28;20385;-74
2024/01/10 10:55:30;;;;;;;3.90;1.98;;;3.30;56.40;;;;;;5017408;28;20489;-75
2024/01/10 10:57:58;;;;;;;4.30;2.17;;;3.30;56.40;;;;;;5015089;28;20477;-75
2024/01/10 11:00:27;;;;;;;3.35;2.05;;;3.40;56.60;;;;;;5015581;28;20567;-74
2024/01/10 11:02:57;;;;;;;3.92;2.10;;;3.40;56.60;;;;;;5006536;28;20041;-74
2024/01/10 11:05:25;;;;;;;4.55;1.95;;;3.40;56.60;;;;;;5011242;28;20088;-74
2024/01/10 11:07:52;;;;;;;2.95;1.95;;;3.50;56.70;;;;;;5015970;28;20083;-74
2024/01/10 11:10:26;;;;;;;5.00;2.13;;;3.50;56.70;;;;;;5008719;28;20029;-75
2024/01/10 11:13:25;;;;;;;5.10;2.13;;;3.50;56.70;;;;;;5006718;28;20057;-74
2024/01/10 11:16:45;;;;;;;5.13;2.00;;;3.50;56.70;;;;;;4984486;28;20049;-74
2024/01/10 11:19:46;;;;;;;6.55;2.63;;;3.50;56.60;;;;;;4988779;28;20064;-75
2024/01/10 11:22:34;;;;;;;4.10;2.30;;;3.60;56.80;;;;;;4997842;28;20048;-75
2024/01/10 11:25:01;;;;;;;4.63;2.40;;;3.60;56.80;;;;;;5017124;28;20112;-74
2024/01/10 11:27:27;;;;;;;4.38;2.80;;;3.60;56.70;;;;;;5013491;28;20588;-75
2024/01/10 11:29:54;;;;;;;7.45;2.97;;;3.60;56.70;;;;;;5010088;28;20037;-74
2024/01/10 11:32:23;;;;;;;5.00;2.13;;;3.70;57.00;;;;;;5009174;28;20631;-75
2024/01/10 11:34:59;;;;;;;5.95;2.58;;;3.60;56.80;;;;;;5019072;28;20222;-74
2024/01/10 11:37:41;;;;;;;6.95;2.53;;;3.70;57.00;;;;;;5006295;28;20068;-75
2024/01/10 11:40:09;;;;;;;2.97;2.40;;;3.70;57.00;;;;;;5015949;28;20044;-74
2024/01/10 11:42:46;;;;;;;5.78;2.25;;;3.70;56.90;;;;;;5007194;28;20034;-74
2024/01/10 11:45:31;;;;;;;3.35;2.30;;;3.80;57.10;;;;;;5016315;28;20034;-74
2024/01/10 11:47:58;;;;;;;4.05;2.40;;;3.80;57.10;;;;;;5010358;28;20072;-74
2024/01/10 11:50:26;;;;;;;3.17;1.95;;;3.80;57.00;;;;;;5016405;28;20033;-74
2024/01/10 11:52:55;;;;;;;2.75;1.70;;;3.90;57.20;;;;;;5009815;28;20140;-75
2024/01/10 11:55:47;;;;;;;4.57;2.35;;;3.90;57.20;;;;;;5033969;28;20508;-74
2024/01/10 11:58:13;;;;;;;3.88;1.75;;;3.90;57.20;;;;;;5014367;28;20069;-74
2024/01/10 12:00:40;;;;;;;2.58;2.20;;;4.00;57.30;;;;;;5005693;28;20105;-74
2024/01/10 12:03:12;;;;;;;6.43;2.38;;;4.00;57.30;;;;;;5001947;28;20443;-73
2024/01/10 12:05:40;;;;;;;3.70;2.00;;;4.00;57.20;;;;;;5009631;28;20120;-74
2024/01/10 12:08:09;;;;;;;4.47;2.10;;;4.10;57.40;;;;;;5016962;28;20132;-74
2024/01/10 12:10:46;;;;;;;3.40;2.00;;;4.10;57.40;;;;;;5011324;28;20486;-74
2024/01/10 12:13:12;;;;;;;3.15;1.90;;;4.10;57.40;;;;;;5002808;28;20490;-75
2024/01/10 12:15:38;;;;;;;4.28;2.05;;;4.20;57.50;;;;;;4998439;28;20034;-73
2024/01/10 12:18:05;;;;;;;3.58;1.80;;;4.10;57.30;;;;;;5018173;28;20592;-74
2024/01/10 12:20:32;;;;;;;6.68;2.15;;;4.20;57.50;;;;;;5009963;28;20034;-74
2024/01/10 12:22:58;;;;;;;6.45;2.33;;;4.20;57.50;;;;;;5006903;28;20088;-74
2024/01/10 12:25:26;;;;;;;4.53;2.00;;;4.30;57.70;;;;;;5006972;28;20060;-74
2024/01/10 12:27:52;;;;;;;3.28;2.10;;;4.30;57.60;;;;;;5024920;28;20037;-76
2024/01/10 12:30:19;;;;;;;3.45;1.95;;;4.30;58.20;;;;;;5012098;28;20079;-74
2024/01/10 12:32:50;;;;;;;5.03;2.60;;;4.30;57.50;;;;;;5025385;28;20152;-75
2024/01/10 12:35:19;;;;;;;4.20;1.85;;;4.30;57.50;;;;;;5032491;28;20450;-76
2024/01/10 12:37:55;;;;;;;4.47;3.05;;;4.30;57.60;;;;;;5022377;28;20078;-75
2024/01/10 12:40:21;;;;;;;5.07;2.08;;;4.30;57.50;;;;;;5017546;28;20021;-76
2024/01/10 12:42:47;;;;;;;4.55;2.22;;;4.30;57.50;;;;;;5018730;28;20359;-76
2024/01/10 12:45:23;;;;;;;4.35;1.95;;;4.30;57.50;;;;;;5018548;28;20029;-74
2024/01/10 12:47:49;;;;;;;3.28;1.83;;;4.40;57.70;;;;;;5018898;28;20053;-76
2024/01/10 12:50:15;;;;;;;3.25;2.42;;;4.40;57.70;;;;;;5015944;28;20048;-75
2024/01/10 12:52:42;;;;;;;2.60;1.60;;;4.40;57.70;;;;;;5005701;28;20405;-74
2024/01/10 12:55:09;;;;;;;3.00;1.75;;;4.40;57.70;;;;;;5001597;28;20107;-76
2024/01/10 12:57:35;;;;;;;7.45;2.33;;;4.40;57.70;;;;;;5019567;28;20065;-74
2024/01/10 13:00:08;;;;;;;3.92;2.05;;;4.40;57.70;;;;;;5004496;28;20057;-73